createdAt,value
2019-04-16T09:25:14.114Z,221
2019-04-16T09:27:20.268Z,188
2019-04-16T09:30:52.195Z,279
2019-04-16T09:34:22.146Z,287
2019-04-16T09:37:52.189Z,295
2019-04-16T09:41:23.131Z,302
2019-04-16T09:44:53.085Z,275
2019-04-16T09:48:23.023Z,286
2019-04-16T09:51:53.976Z,150
2019-04-16T10:38:36.887Z,433
2019-04-16T10:42:04.863Z,424
2019-04-16T10:52:56.407Z,571
2019-04-16T10:56:25.086Z,578
2019-04-16T10:59:53.014Z,586
2019-04-16T11:03:20.974Z,601
2019-04-16T11:06:44.756Z,572
2019-04-16T11:10:14.685Z,619
2019-04-16T11:13:58.290Z,632
2019-04-16T11:17:16.554Z,639
2019-04-16T11:20:46.537Z,649
2019-04-16T11:24:51.154Z,659
2019-04-16T11:28:19.116Z,674
2019-04-16T11:31:48.097Z,683
2019-04-16T11:35:22.760Z,694
2019-04-16T11:38:48.959Z,732
2019-04-16T11:42:16.920Z,777
2019-04-16T11:45:44.897Z,766
2019-04-16T11:49:12.828Z,765
2019-04-16T11:52:41.794Z,774
2019-04-16T11:57:18.137Z,802
2019-04-16T12:06:59.407Z,4720
2019-04-16T12:10:54.131Z,4943
2019-04-16T12:14:47.877Z,2654
2019-04-16T12:18:42.736Z,4164
2019-04-16T12:22:37.137Z,6376
2019-04-16T12:26:32.277Z,9445
2019-04-16T12:30:32.265Z,9839
2019-04-16T12:34:36.266Z,9533
2019-04-16T12:38:30.693Z,11883
2019-04-16T12:42:29.352Z,10551
2019-04-16T12:46:51.735Z,14859
2019-04-16T12:51:02.344Z,17400
2019-04-16T12:54:32.322Z,16944
2019-04-16T12:58:02.272Z,10025
2019-04-16T13:01:36.326Z,2964
2019-04-16T13:05:53.723Z,2880
2019-04-16T13:09:21.901Z,17048
2019-04-16T13:12:40.333Z,22672
2019-04-16T13:16:57.451Z,26016
2019-04-16T13:21:03.596Z,26712
2019-04-16T13:24:56.163Z,27720
2019-04-16T13:28:55.088Z,26656
2019-04-16T13:32:21.612Z,30408
2019-04-16T13:35:52.551Z,16880
2019-04-16T13:40:08.947Z,11694
2019-04-16T13:45:21.776Z,2750
2019-04-16T13:49:33.130Z,3033
2019-04-16T13:53:41.229Z,24296
2019-04-16T13:57:35.712Z,33496
2019-04-16T14:01:30.728Z,36792
2019-04-16T14:06:01.968Z,25872
2019-04-16T14:09:55.856Z,38560
2019-04-16T14:13:52.208Z,5156
2019-04-16T14:18:16.716Z,2803
2019-04-16T14:22:11.598Z,2531
2019-04-16T14:26:05.479Z,2249
2019-04-16T14:30:02.368Z,2085
2019-04-16T14:33:56.391Z,1783
2019-04-16T14:37:50.241Z,46912
2019-04-16T14:41:49.124Z,1618
2019-04-16T14:45:57.327Z,1508
2019-04-16T14:49:37.958Z,1471
2019-04-16T14:53:32.194Z,1445
2019-04-16T14:57:24.845Z,1401
2019-04-16T15:01:21.184Z,1092
2019-04-16T15:05:16.851Z,1070
2019-04-16T15:09:10.679Z,1041
2019-04-16T15:13:05.396Z,1011
2019-04-16T15:16:59.755Z,998
2019-04-16T15:20:53.266Z,977
2019-04-16T15:24:47.420Z,957
2019-04-16T15:28:41.512Z,941
2019-04-16T15:32:37.135Z,917
2019-04-16T15:36:31.399Z,887
2019-04-16T15:40:26.051Z,882
2019-04-16T15:44:23.518Z,865
2019-04-16T15:48:19.017Z,844
2019-04-16T15:52:01.447Z,836
2019-04-16T15:55:56.083Z,820
2019-04-16T16:01:22.661Z,790
2019-04-16T16:05:15.654Z,742
2019-04-16T16:09:10.917Z,761
2019-04-16T16:14:01.940Z,864
2019-04-16T16:19:30.050Z,643
2019-04-16T16:23:24.058Z,672
2019-04-16T16:27:18.063Z,740
